createdAt,value
2024-05-09T00:00:22.081Z,9.33
2024-05-09T00:02:53.205Z,9.30
2024-05-09T00:05:20.062Z,9.28
2024-05-09T00:07:46.858Z,9.27
2024-05-09T00:10:22.382Z,9.23
2024-05-09T00:12:55.738Z,9.19
2024-05-09T00:15:22.399Z,9.18
2024-05-09T00:17:49.375Z,9.16
2024-05-09T00:20:20.630Z,9.14
2024-05-09T00:22:54.558Z,9.13
2024-05-09T00:25:21.231Z,9.09
2024-05-09T00:27:47.917Z,9.07
2024-05-09T00:30:21.464Z,9.05
2024-05-09T00:32:55.254Z,9.04
2024-05-09T00:35:22.211Z,9.03
2024-05-09T00:37:48.988Z,9.00
2024-05-09T00:40:22.890Z,8.98
2024-05-09T00:42:57.587Z,8.96
2024-05-09T00:45:24.296Z,8.93
2024-05-09T00:47:51.300Z,8.91
2024-05-09T00:50:22.874Z,8.89
2024-05-09T00:52:56.812Z,8.86
2024-05-09T00:55:24.018Z,8.85
2024-05-09T00:57:50.974Z,8.83
2024-05-09T01:00:26.616Z,8.81
2024-05-09T01:02:58.684Z,8.76
2024-05-09T01:05:25.562Z,8.74
2024-05-09T01:07:52.416Z,8.71
2024-05-09T01:10:27.560Z,8.69
2024-05-09T01:12:58.775Z,8.67
2024-05-09T01:15:25.454Z,8.67
2024-05-09T01:17:55.679Z,8.64
2024-05-09T01:20:31.839Z,8.60
2024-05-09T01:23:07.276Z,8.59
2024-05-09T01:25:34.072Z,8.55
2024-05-09T01:28:01.130Z,8.55
2024-05-09T01:30:34.112Z,8.52
2024-05-09T01:33:03.570Z,8.51
2024-05-09T01:35:30.604Z,8.50
2024-05-09T01:37:57.323Z,8.47
2024-05-09T01:40:33.458Z,8.45
2024-05-09T01:43:04.867Z,8.41
2024-05-09T01:45:31.725Z,8.41
2024-05-09T01:47:58.662Z,8.40
2024-05-09T01:50:36.987Z,8.38
2024-05-09T01:53:07.584Z,8.36
2024-05-09T01:55:34.526Z,8.35
2024-05-09T01:58:01.230Z,8.33
2024-05-09T02:00:37.940Z,8.30
2024-05-09T02:03:14.627Z,8.29
2024-05-09T02:05:45.023Z,8.26
2024-05-09T02:08:15.879Z,8.24
2024-05-09T02:10:47.580Z,8.21
2024-05-09T02:13:15.407Z,8.20
2024-05-09T02:15:42.564Z,8.18
2024-05-09T02:18:10.280Z,8.15
2024-05-09T02:20:41.654Z,8.12
2024-05-09T02:23:09.177Z,8.11
2024-05-09T02:25:36.006Z,8.09
2024-05-09T02:28:03.207Z,8.07
2024-05-09T02:30:38.643Z,8.05
2024-05-09T02:33:12.930Z,8.01
2024-05-09T02:35:41.657Z,8.00
2024-05-09T02:38:12.382Z,7.96
2024-05-09T02:40:40.199Z,7.93
2024-05-09T02:43:09.575Z,7.90
2024-05-09T02:45:37.488Z,7.89
2024-05-09T02:48:04.711Z,7.84
2024-05-09T02:50:37.861Z,7.82
2024-05-09T02:53:07.416Z,7.80
2024-05-09T02:55:34.497Z,7.79
2024-05-09T02:58:01.153Z,7.76
2024-05-09T03:00:36.684Z,7.73
2024-05-09T03:03:08.626Z,7.70
2024-05-09T03:05:36.962Z,7.66
2024-05-09T03:08:04.516Z,7.65
2024-05-09T03:10:36.026Z,7.64
2024-05-09T03:13:14.135Z,7.63
2024-05-09T03:15:42.535Z,7.61
2024-05-09T03:18:09.964Z,7.59
2024-05-09T03:20:38.079Z,7.57
2024-05-09T03:23:07.834Z,7.55
2024-05-09T03:25:35.871Z,7.52
2024-05-09T03:28:02.738Z,7.49
2024-05-09T03:30:36.644Z,7.49
2024-05-09T03:33:19.163Z,7.49
2024-05-09T03:35:47.539Z,7.46
2024-05-09T03:38:14.519Z,7.41
2024-05-09T03:40:46.052Z,7.40
2024-05-09T03:43:13.592Z,7.38
2024-05-09T03:45:40.226Z,7.37
2024-05-09T03:48:07.709Z,7.35
2024-05-09T03:50:36.163Z,7.32
2024-05-09T03:53:04.008Z,7.31
2024-05-09T03:55:31.253Z,7.29
2024-05-09T03:57:58.166Z,7.27
2024-05-09T04:00:31.512Z,7.24
2024-05-09T04:03:06.276Z,7.20
2024-05-09T04:05:34.994Z,7.17
2024-05-09T04:08:02.229Z,7.17
2024-05-09T04:10:33.596Z,7.16
2024-05-09T04:13:02.373Z,7.15
2024-05-09T04:15:29.550Z,7.15
2024-05-09T04:17:56.490Z,7.14
2024-05-09T04:20:33.920Z,7.15
2024-05-09T04:23:06.688Z,7.15
2024-05-09T04:25:33.693Z,7.14
2024-05-09T04:28:00.471Z,7.14
2024-05-09T04:30:36.076Z,7.14
2024-05-09T04:33:06.647Z,7.16
2024-05-09T04:35:34.342Z,7.17
2024-05-09T04:38:01.412Z,7.18
2024-05-09T04:40:33.529Z,7.19
2024-05-09T04:43:06.787Z,7.18
2024-05-09T04:45:33.811Z,7.17
2024-05-09T04:48:01.207Z,7.18
2024-05-09T04:50:35.979Z,7.20
2024-05-09T04:53:10.090Z,7.23
2024-05-09T04:55:38.170Z,7.25
2024-05-09T04:58:08.512Z,7.27
2024-05-09T05:00:37.487Z,7.30
2024-05-09T05:03:08.009Z,7.31
2024-05-09T05:05:40.291Z,7.32
2024-05-09T05:08:18.998Z,7.37
2024-05-09T05:10:46.813Z,7.41
2024-05-09T05:13:20.365Z,7.44
2024-05-09T05:15:49.467Z,7.48
2024-05-09T05:18:17.047Z,7.52
2024-05-09T05:20:44.300Z,7.55
2024-05-09T05:23:13.535Z,7.60
2024-05-09T05:25:43.879Z,7.67
2024-05-09T05:28:11.058Z,7.71
2024-05-09T05:30:38.662Z,7.78
2024-05-09T05:33:06.820Z,7.83
2024-05-09T05:35:34.905Z,7.88
2024-05-09T05:38:02.148Z,7.95
2024-05-09T05:40:36.214Z,8.01
2024-05-09T05:43:09.918Z,8.08
2024-05-09T05:45:37.406Z,8.15
2024-05-09T05:48:06.349Z,8.21
2024-05-09T05:50:36.703Z,8.29
2024-05-09T05:53:07.498Z,8.39
2024-05-09T05:55:35.303Z,8.47
2024-05-09T05:58:02.594Z,8.55
2024-05-09T06:00:35.424Z,8.65
2024-05-09T06:03:06.113Z,8.76
2024-05-09T06:05:33.162Z,8.89
2024-05-09T06:08:07.540Z,9.00
2024-05-09T06:10:43.299Z,9.14
2024-05-09T06:13:18.209Z,9.28
2024-05-09T06:15:52.554Z,9.42
2024-05-09T06:18:20.486Z,9.51
2024-05-09T06:20:47.379Z,9.60
2024-05-09T06:23:14.368Z,9.69
2024-05-09T06:25:42.416Z,9.75
2024-05-09T06:28:09.332Z,9.84
2024-05-09T06:30:40.306Z,9.95
2024-05-09T06:33:11.535Z,10.06
2024-05-09T06:35:40.185Z,10.17
2024-05-09T06:38:09.457Z,10.31
2024-05-09T06:40:39.114Z,10.42
2024-05-09T06:43:18.870Z,10.55
2024-05-09T06:45:48.439Z,10.63
2024-05-09T06:48:18.189Z,10.75
2024-05-09T06:50:45.393Z,10.85
2024-05-09T06:53:14.783Z,10.95
2024-05-09T06:55:41.534Z,11.05
2024-05-09T06:58:09.294Z,11.18
2024-05-09T07:00:39.738Z,11.30
2024-05-09T07:03:13.851Z,11.43
2024-05-09T07:05:43.035Z,11.53
2024-05-09T07:08:10.382Z,11.62
2024-05-09T07:10:37.530Z,11.69
2024-05-09T07:13:10.925Z,11.83
2024-05-09T07:15:38.064Z,11.92
2024-05-09T07:18:11.920Z,12.01
2024-05-09T07:20:40.156Z,12.10
2024-05-09T07:23:10.816Z,12.20
2024-05-09T07:25:38.266Z,12.30
2024-05-09T07:28:05.504Z,12.42
2024-05-09T07:30:34.447Z,12.53
2024-05-09T07:33:04.770Z,12.63
2024-05-09T07:35:31.808Z,12.74
2024-05-09T07:37:58.766Z,12.84
2024-05-09T07:40:33.116Z,12.95
2024-05-09T07:43:07.149Z,13.05
2024-05-09T07:53:36.777Z,13.40
2024-05-09T07:55:56.363Z,13.52
2024-05-09T07:58:27.360Z,13.61
2024-05-09T08:00:54.902Z,13.66
2024-05-09T08:03:22.607Z,13.72
2024-05-09T08:05:49.420Z,13.84
2024-05-09T08:08:16.107Z,13.92
2024-05-09T08:10:42.826Z,14.04
2024-05-09T08:13:09.610Z,14.14
2024-05-09T08:15:37.904Z,14.22
2024-05-09T08:18:08.949Z,14.28
2024-05-09T08:20:39.986Z,14.35
2024-05-09T08:23:07.078Z,14.47
2024-05-09T08:25:33.726Z,14.55
2024-05-09T08:28:00.514Z,14.68
2024-05-09T08:30:33.617Z,14.80
2024-05-09T08:33:05.011Z,14.92
2024-05-09T08:35:32.914Z,15.12
2024-05-09T08:37:59.972Z,15.32
2024-05-09T08:40:34.122Z,15.55
2024-05-09T08:43:05.111Z,15.78
2024-05-09T08:45:33.382Z,15.95
2024-05-09T08:48:05.746Z,16.24
2024-05-09T08:50:38.755Z,16.52
2024-05-09T08:53:07.643Z,16.65
2024-05-09T08:55:37.376Z,16.87
2024-05-09T08:58:07.630Z,17.01
2024-05-09T09:00:37.431Z,17.14
2024-05-09T09:03:09.289Z,17.32
2024-05-09T09:05:40.034Z,17.41
2024-05-09T09:08:08.714Z,17.63
2024-05-09T09:10:35.928Z,17.85
2024-05-09T09:13:09.588Z,18.00
2024-05-09T09:15:50.304Z,18.18
2024-05-09T09:18:18.296Z,18.43
2024-05-09T09:20:45.275Z,18.73
2024-05-09T09:23:15.003Z,19.00
2024-05-09T09:25:42.227Z,19.04
2024-05-09T09:28:09.617Z,19.23
2024-05-09T09:30:40.789Z,19.48
2024-05-09T09:33:10.560Z,19.65
2024-05-09T09:35:39.781Z,19.79
2024-05-09T09:38:07.890Z,20.11
2024-05-09T09:40:39.214Z,20.21
2024-05-09T09:43:14.811Z,20.11
2024-05-09T09:45:44.162Z,20.17
2024-05-09T09:48:14.627Z,20.19
2024-05-09T09:50:42.276Z,20.37
2024-05-09T09:53:09.988Z,20.22
2024-05-09T09:55:37.574Z,20.39
2024-05-09T09:58:05.879Z,20.61
2024-05-09T10:00:34.305Z,20.60
2024-05-09T10:03:01.953Z,20.54
2024-05-09T10:05:30.146Z,20.32
2024-05-09T10:07:59.240Z,20.77
2024-05-09T10:10:31.752Z,21.04
2024-05-09T10:13:00.496Z,21.05
2024-05-09T10:15:27.714Z,21.42
2024-05-09T10:17:54.764Z,21.63
2024-05-09T10:20:28.026Z,21.69
2024-05-09T10:22:58.877Z,21.78
2024-05-09T10:25:25.565Z,21.96
2024-05-09T10:27:56.009Z,21.96
2024-05-09T10:30:29.928Z,22.03
2024-05-09T10:33:02.504Z,22.01
2024-05-09T10:35:31.455Z,22.16
2024-05-09T10:38:06.090Z,22.20
2024-05-09T10:40:33.160Z,22.17
2024-05-09T10:43:03.318Z,22.07
2024-05-09T10:45:32.756Z,22.00
2024-05-09T10:47:59.802Z,22.03
2024-05-09T10:50:31.777Z,21.71
2024-05-09T10:53:00.610Z,21.57
2024-05-09T10:55:27.548Z,21.75
2024-05-09T10:57:54.327Z,21.89
2024-05-09T11:00:27.672Z,21.84
2024-05-09T11:03:00.172Z,21.82
2024-05-09T11:05:27.339Z,21.88
2024-05-09T11:07:55.015Z,21.88
2024-05-09T11:10:31.586Z,21.88
2024-05-09T11:13:00.712Z,21.84
2024-05-09T11:15:38.098Z,21.79
2024-05-09T11:18:05.394Z,21.90
2024-05-09T11:20:35.983Z,21.66
2024-05-09T11:23:08.627Z,21.72
2024-05-09T11:25:35.274Z,22.05
2024-05-09T11:28:02.963Z,22.42
2024-05-09T11:30:34.633Z,22.63
2024-05-09T11:33:01.360Z,22.65
2024-05-09T11:35:29.379Z,22.33
2024-05-09T11:37:56.087Z,22.26
2024-05-09T11:40:25.887Z,22.18
2024-05-09T11:42:59.142Z,22.15
2024-05-09T11:45:25.838Z,21.91
2024-05-09T11:47:52.972Z,21.72
2024-05-09T11:50:27.094Z,21.70
2024-05-09T11:52:57.051Z,21.60
2024-05-09T11:55:27.751Z,21.64
2024-05-09T11:57:55.698Z,21.89
2024-05-09T12:00:29.724Z,21.97
2024-05-09T12:03:06.451Z,22.02
2024-05-09T12:05:34.413Z,21.95
2024-05-09T12:08:01.654Z,22.01
2024-05-09T12:12:58.381Z,22.17
2024-05-09T12:15:25.110Z,22.20
2024-05-09T12:17:54.962Z,22.17
2024-05-09T12:20:28.871Z,22.28
2024-05-09T12:23:02.481Z,22.34
2024-05-09T12:25:29.216Z,22.56
2024-05-09T12:27:55.980Z,22.49
2024-05-09T12:30:32.754Z,22.35
2024-05-09T12:33:04.421Z,22.37
2024-05-09T12:35:31.347Z,22.50
2024-05-09T12:37:57.996Z,22.51
2024-05-09T12:40:34.199Z,22.45
2024-05-09T12:43:04.836Z,22.40
2024-05-09T12:45:31.968Z,22.51
2024-05-09T12:47:58.795Z,22.58
2024-05-09T12:50:31.956Z,22.70
2024-05-09T12:53:00.957Z,22.74
2024-05-09T12:55:28.561Z,22.83
2024-05-09T12:57:57.350Z,23.05
2024-05-09T13:00:31.240Z,23.07
2024-05-09T13:03:01.150Z,23.06
2024-05-09T13:05:28.670Z,23.02
2024-05-09T13:07:56.806Z,23.04
2024-05-09T13:10:30.858Z,22.86
2024-05-09T13:12:59.968Z,22.75
2024-05-09T13:15:27.220Z,22.67
2024-05-09T13:17:55.790Z,22.63
2024-05-09T13:20:31.645Z,22.55
2024-05-09T13:23:05.789Z,22.41
2024-05-09T13:25:36.503Z,22.16
2024-05-09T13:28:04.086Z,22.10
2024-05-09T13:30:39.162Z,22.06
2024-05-09T13:33:12.488Z,21.96
2024-05-09T13:35:47.829Z,21.79
2024-05-09T13:38:19.063Z,21.77
2024-05-09T13:40:46.212Z,21.70
2024-05-09T13:43:14.464Z,21.65
2024-05-09T13:45:41.732Z,21.65
2024-05-09T13:48:14.797Z,21.66
2024-05-09T13:50:43.917Z,21.54
2024-05-09T13:53:10.670Z,21.54
2024-05-09T13:55:39.279Z,21.48
2024-05-09T13:58:09.884Z,21.46
2024-05-09T14:00:47.891Z,21.45
2024-05-09T14:03:37.196Z,21.47
2024-05-09T14:06:12.114Z,21.48
2024-05-09T14:08:44.004Z,21.47
2024-05-09T14:11:15.008Z,21.54
2024-05-09T14:13:44.715Z,21.60
2024-05-09T14:16:12.469Z,21.53
2024-05-09T14:18:40.391Z,21.50
2024-05-09T14:21:07.160Z,21.46
2024-05-09T14:23:37.171Z,21.42
2024-05-09T14:26:05.890Z,21.43
2024-05-09T14:28:33.258Z,21.47
2024-05-09T14:31:03.381Z,21.50
2024-05-09T14:34:04.852Z,21.48
2024-05-09T14:36:33.268Z,21.48
2024-05-09T14:39:00.070Z,21.57
2024-05-09T14:41:26.697Z,21.72
2024-05-09T14:43:53.359Z,21.72
2024-05-09T14:46:20.296Z,21.76
2024-05-09T14:48:47.125Z,21.94
2024-05-09T14:51:13.957Z,22.00
2024-05-09T14:53:40.611Z,22.14
2024-05-09T14:56:07.386Z,22.35
2024-05-09T14:58:34.222Z,22.24
2024-05-09T15:01:01.126Z,22.04
2024-05-09T15:03:27.837Z,21.80
2024-05-09T15:05:54.756Z,21.76
2024-05-09T15:08:21.404Z,21.71
2024-05-09T15:10:50.082Z,21.57
2024-05-09T15:13:17.654Z,21.67
2024-05-09T15:15:44.667Z,21.78
2024-05-09T15:18:11.869Z,21.96
2024-05-09T15:20:40.359Z,22.18
2024-05-09T15:23:07.560Z,22.04
2024-05-09T15:25:35.333Z,22.10
2024-05-09T15:28:02.578Z,22.17
2024-05-09T15:30:32.308Z,22.19
2024-05-09T15:33:03.405Z,22.05
2024-05-09T15:35:30.430Z,22.08
2024-05-09T15:37:57.207Z,22.06
2024-05-09T15:40:34.829Z,22.04
2024-05-09T15:43:06.901Z,21.98
2024-05-09T15:45:34.121Z,22.01
2024-05-09T15:48:03.132Z,21.90
2024-05-09T15:50:37.137Z,21.92
2024-05-09T15:53:08.307Z,21.88
2024-05-09T16:00:07.745Z,21.75
2024-05-09T16:02:36.673Z,21.69
2024-05-09T16:05:03.791Z,21.61
2024-05-09T16:07:30.519Z,21.66
2024-05-09T16:09:57.442Z,21.64
2024-05-09T16:12:24.964Z,21.55
2024-05-09T16:14:52.422Z,21.65
2024-05-09T16:17:19.213Z,21.60
2024-05-09T16:19:46.056Z,21.58
2024-05-09T16:22:12.835Z,21.55
2024-05-09T16:24:39.780Z,21.32
2024-05-09T16:27:06.696Z,21.20
2024-05-09T16:29:33.387Z,21.11
2024-05-09T16:32:00.284Z,20.99
2024-05-09T16:34:27.261Z,20.94
2024-05-09T16:36:54.139Z,20.89
2024-05-09T16:39:20.899Z,20.72
2024-05-09T16:41:47.582Z,20.63
2024-05-09T16:44:14.206Z,20.55
2024-05-09T16:46:40.936Z,20.51
2024-05-09T16:49:08.339Z,20.47
2024-05-09T16:51:35.052Z,20.42
2024-05-09T16:54:04.875Z,20.44
2024-05-09T16:56:31.643Z,20.39
2024-05-09T16:58:58.392Z,20.33
2024-05-09T17:01:25.156Z,20.30
2024-05-09T17:03:52.113Z,20.33
2024-05-09T17:06:19.040Z,20.35
2024-05-09T17:08:45.690Z,20.31
2024-05-09T17:11:13.304Z,20.23
2024-05-09T17:13:40.913Z,20.17
2024-05-09T17:16:08.748Z,20.16
2024-05-09T17:18:35.778Z,20.16
2024-05-09T17:21:02.562Z,20.15
2024-05-09T17:23:30.477Z,20.13
2024-05-09T17:25:58.429Z,20.07
2024-05-09T17:28:25.318Z,20.02
2024-05-09T17:30:52.162Z,19.97
2024-05-09T17:33:19.064Z,19.94
2024-05-09T17:35:50.175Z,19.88
2024-05-09T17:38:17.384Z,19.79
2024-05-09T17:40:44.139Z,19.68
2024-05-09T17:43:11.306Z,19.66
2024-05-09T17:45:39.445Z,19.59
2024-05-09T17:48:08.032Z,19.49
2024-05-09T17:50:37.203Z,19.41
2024-05-09T17:53:06.062Z,19.28
2024-05-09T17:55:33.108Z,19.07
2024-05-09T17:58:00.234Z,18.88
2024-05-09T18:02:56.701Z,18.58
2024-05-09T18:05:23.585Z,18.41
2024-05-09T18:07:50.480Z,18.32
2024-05-09T18:10:25.214Z,18.23
2024-05-09T18:12:56.543Z,18.11
2024-05-09T18:15:23.291Z,18.00
2024-05-09T18:17:50.211Z,17.91
2024-05-09T18:20:24.074Z,17.81
2024-05-09T18:22:59.490Z,17.75
2024-05-09T18:25:26.165Z,17.67
2024-05-09T18:27:53.340Z,17.59
2024-05-09T18:30:27.431Z,17.53
2024-05-09T18:32:58.591Z,17.48
2024-05-09T18:35:25.315Z,17.41
2024-05-09T18:37:53.094Z,17.33
2024-05-09T18:40:27.344Z,17.25
2024-05-09T18:42:58.117Z,17.17
2024-05-09T18:45:24.874Z,17.09
2024-05-09T18:47:51.742Z,17.05
2024-05-09T18:50:28.442Z,16.98
2024-05-09T18:53:01.435Z,16.90
2024-05-09T18:55:28.167Z,16.83
2024-05-09T18:57:54.935Z,16.76
2024-05-09T19:00:33.294Z,16.71
2024-05-09T19:03:05.724Z,16.63
2024-05-09T19:05:35.049Z,16.57
2024-05-09T19:08:02.453Z,16.51
2024-05-09T19:10:34.216Z,16.44
2024-05-09T19:13:06.477Z,16.39
2024-05-09T19:15:37.267Z,16.31
2024-05-09T19:18:04.371Z,16.24
2024-05-09T19:20:34.537Z,16.17
2024-05-09T19:23:02.835Z,16.09
2024-05-09T19:25:29.618Z,16.01
2024-05-09T19:27:56.347Z,15.92
2024-05-09T19:30:30.459Z,15.86
2024-05-09T19:33:05.837Z,15.80
2024-05-09T19:35:32.916Z,15.71
2024-05-09T19:37:59.809Z,15.63
2024-05-09T19:40:31.434Z,15.55
2024-05-09T19:43:01.482Z,15.47
2024-05-09T19:45:28.947Z,15.39
2024-05-09T19:47:56.261Z,15.29
2024-05-09T19:50:31.719Z,15.21
2024-05-09T19:53:05.994Z,15.13
2024-05-09T19:55:33.212Z,15.07
2024-05-09T19:58:01.658Z,15.04
2024-05-09T20:00:35.684Z,15.00
2024-05-09T20:03:04.314Z,14.97
2024-05-09T20:05:31.500Z,14.93
2024-05-09T20:07:58.408Z,14.90
2024-05-09T20:10:31.403Z,14.84
2024-05-09T20:13:00.354Z,14.81
2024-05-09T20:15:27.256Z,14.77
2024-05-09T20:17:54.325Z,14.72
2024-05-09T20:20:32.145Z,14.66
2024-05-09T20:23:04.096Z,14.57
2024-05-09T20:25:30.869Z,14.48
2024-05-09T20:27:57.702Z,14.44
2024-05-09T20:30:31.336Z,14.38
2024-05-09T20:33:02.454Z,14.30
2024-05-09T20:35:32.041Z,14.25
2024-05-09T20:37:59.365Z,14.19
2024-05-09T20:40:31.977Z,14.13
2024-05-09T20:43:02.389Z,14.07
2024-05-09T20:45:29.112Z,14.01
2024-05-09T20:47:56.189Z,13.95
2024-05-09T20:50:31.747Z,13.90
2024-05-09T20:53:05.167Z,13.84
2024-05-09T20:55:31.906Z,13.75
2024-05-09T20:57:58.802Z,13.71
2024-05-09T21:00:34.559Z,13.66
2024-05-09T21:03:07.195Z,13.62
2024-05-09T21:05:35.191Z,13.59
2024-05-09T21:08:02.646Z,13.55
2024-05-09T21:10:32.931Z,13.50
2024-05-09T21:13:01.690Z,13.45
2024-05-09T21:15:28.959Z,13.43
2024-05-09T21:17:55.634Z,13.40
2024-05-09T21:20:28.839Z,13.36
2024-05-09T21:22:58.496Z,13.33
2024-05-09T21:25:25.345Z,13.29
2024-05-09T21:27:52.551Z,13.25
2024-05-09T21:30:31.192Z,13.22
2024-05-09T21:33:06.272Z,13.18
2024-05-09T21:35:33.124Z,13.18
2024-05-09T21:37:59.793Z,13.15
2024-05-09T21:40:33.258Z,13.11
2024-05-09T21:43:02.318Z,13.08
2024-05-09T21:45:29.110Z,13.06
2024-05-09T21:47:56.111Z,13.05
2024-05-09T21:50:28.550Z,13.05
2024-05-09T21:53:03.026Z,13.01
2024-05-09T21:55:30.188Z,12.99
2024-05-09T21:57:57.147Z,12.96
2024-05-09T22:00:32.085Z,12.94
2024-05-09T22:03:03.524Z,12.92
2024-05-09T22:05:30.450Z,12.90
2024-05-09T22:07:57.375Z,12.88
2024-05-09T22:10:30.612Z,12.84
2024-05-09T22:13:00.998Z,12.80
2024-05-09T22:15:27.771Z,12.75
2024-05-09T22:17:55.777Z,12.75
2024-05-09T22:20:29.393Z,12.73
2024-05-09T22:23:03.405Z,12.71
2024-05-09T22:25:31.214Z,12.69
2024-05-09T22:27:59.113Z,12.64
2024-05-09T22:30:34.344Z,12.59
2024-05-09T22:33:05.762Z,12.52
2024-05-09T22:35:32.868Z,12.47
2024-05-09T22:37:59.592Z,12.45
2024-05-09T22:40:38.089Z,12.42
2024-05-09T22:43:12.909Z,12.40
2024-05-09T22:45:39.865Z,12.37
2024-05-09T22:48:08.096Z,12.35
2024-05-09T22:50:35.010Z,12.34
2024-05-09T22:53:01.913Z,12.31
2024-05-09T22:55:29.015Z,12.28
2024-05-09T22:57:56.180Z,12.24
2024-05-09T23:00:31.062Z,12.24
2024-05-09T23:03:00.631Z,12.23
2024-05-09T23:05:27.714Z,12.21
2024-05-09T23:07:54.501Z,12.20
2024-05-09T23:10:28.174Z,12.17
2024-05-09T23:13:01.518Z,12.14
2024-05-09T23:15:28.425Z,12.12
2024-05-09T23:17:55.467Z,12.12
2024-05-09T23:20:33.088Z,12.10
2024-05-09T23:23:04.977Z,12.08
2024-05-09T23:25:31.694Z,12.05
2024-05-09T23:27:58.816Z,12.04
2024-05-09T23:30:33.767Z,12.01
2024-05-09T23:33:05.872Z,11.98
2024-05-09T23:35:32.733Z,11.95
2024-05-09T23:37:59.637Z,11.91
2024-05-09T23:40:35.039Z,11.88
2024-05-09T23:43:05.772Z,11.86
2024-05-09T23:45:32.629Z,11.80
2024-05-09T23:47:59.944Z,11.75
2024-05-09T23:50:33.927Z,11.72
2024-05-09T23:53:03.752Z,11.66
2024-05-09T23:55:31.464Z,11.63
2024-05-09T23:57:58.496Z,11.58
